Terminal Aerodrome Forecast
Issued by NWS

Home | Current Version | Previous Version | Text Only | Print | Product List | Glossary On
Versions: 1 2 3 4 5 6 7 8 9 10 11 12 13 14 15 16 17 18 19 20 21 22 23 24 25 26 27 28 29 30 31 32 33 34 35 36 37 38 39 40 41 42 43 44 45 46
000
FTUS41 KBOX 240526
TAFHYA
TAF
KHYA 240526Z 2406/2506 17008KT 3SM -RA OVC004
     FM240700 17009KT 5SM -RA OVC008
     FM240900 18010G20KT P6SM -RA OVC015
     FM241200 20010G18KT P6SM BKN015
     FM241400 24009KT P6SM SCT040
     FM241800 27010G17KT P6SM FEW040=

USA.gov is the U.S. government's official web portal to all federal, state and local government web resources and services.